sensor_id;sensor_type;location;lat;lon;timestamp;pressure;altitude;pressure_sealevel;temperature;humidity
56630;BME280;42502;40.732;-74.254;2023-04-22T00:01:38;100679.88;;;26.14;32.78
56630;BME280;42502;40.732;-74.254;2023-04-22T00:03:39;100682.38;;;26.19;32.76
56630;BME280;42502;40.732;-74.254;2023-04-22T00:05:41;100681.53;;;26.19;33.10
56630;BME280;42502;40.732;-74.254;2023-04-22T00:07:44;100680.34;;;26.20;32.65
56630;BME280;42502;40.732;-74.254;2023-04-22T00:09:45;100690.03;;;26.19;32.57
56630;BME280;42502;40.732;-74.254;2023-04-22T00:11:45;100687.19;;;26.19;32.74
56630;BME280;42502;40.732;-74.254;2023-04-22T00:13:46;100692.06;;;26.18;32.70
56630;BME280;42502;40.732;-74.254;2023-04-22T00:15:47;100692.06;;;26.18;32.68
56630;BME280;42502;40.732;-74.254;2023-04-22T00:17:48;100692.84;;;26.19;32.67
56630;BME280;42502;40.732;-74.254;2023-04-22T00:19:49;100708.25;;;26.18;32.70
56630;BME280;42502;40.732;-74.254;2023-04-22T00:21:50;100702.59;;;26.18;32.64
56630;BME280;42502;40.732;-74.254;2023-04-22T00:23:51;100706.22;;;26.18;32.84
56630;BME280;42502;40.732;-74.254;2023-04-22T00:25:54;100696.91;;;26.18;32.80
56630;BME280;42502;40.732;-74.254;2023-04-22T00:27:55;100694.88;;;26.15;32.76
56630;BME280;42502;40.732;-74.254;2023-04-22T00:29:56;100700.16;;;26.16;32.76
56630;BME280;42502;40.732;-74.254;2023-04-22T00:31:56;100709.44;;;26.17;32.67
56630;BME280;42502;40.732;-74.254;2023-04-22T00:34:00;100695.66;;;26.12;32.92
56630;BME280;42502;40.732;-74.254;2023-04-22T00:36:01;100700.53;;;26.15;32.76
56630;BME280;42502;40.732;-74.254;2023-04-22T00:38:02;100694.47;;;26.16;32.57
56630;BME280;42502;40.732;-74.254;2023-04-22T00:40:03;100692.03;;;26.15;32.56
56630;BME280;42502;40.732;-74.254;2023-04-22T00:42:06;100682.72;;;26.14;32.92
56630;BME280;42502;40.732;-74.254;2023-04-22T00:44:10;100684.75;;;26.14;32.74
56630;BME280;42502;40.732;-74.254;2023-04-22T00:46:11;100693.25;;;26.14;32.46
56630;BME280;42502;40.732;-74.254;2023-04-22T00:48:12;100687.16;;;26.12;32.64
56630;BME280;42502;40.732;-74.254;2023-04-22T00:50:14;100681.13;;;26.13;32.77
56630;BME280;42502;40.732;-74.254;2023-04-22T00:52:15;100699.28;;;26.12;32.48
56630;BME280;42502;40.732;-74.254;2023-04-22T00:54:16;100695.22;;;26.10;32.88
56630;BME280;42502;40.732;-74.254;2023-04-22T00:56:16;100692.00;;;26.11;32.43
56630;BME280;42502;40.732;-74.254;2023-04-22T00:58:20;100707.00;;;26.12;32.45
56630;BME280;42502;40.732;-74.254;2023-04-22T01:00:22;100702.53;;;26.11;32.50
56630;BME280;42502;40.732;-74.254;2023-04-22T01:02:27;100700.88;;;26.10;32.44
56630;BME280;42502;40.732;-74.254;2023-04-22T01:04:28;100706.53;;;26.10;32.57
56630;BME280;42502;40.732;-74.254;2023-04-22T01:06:29;100695.19;;;26.06;32.88
56630;BME280;42502;40.732;-74.254;2023-04-22T01:08:33;100705.75;;;26.09;32.43
56630;BME280;42502;40.732;-74.254;2023-04-22T01:10:34;100700.09;;;26.09;32.56
56630;BME280;42502;40.732;-74.254;2023-04-22T01:12:35;100698.84;;;26.06;32.46
56630;BME280;42502;40.732;-74.254;2023-04-22T01:14:36;100700.47;;;26.08;32.51
56630;BME280;42502;40.732;-74.254;2023-04-22T01:16:38;100697.19;;;26.02;32.55
56630;BME280;42502;40.732;-74.254;2023-04-22T01:18:41;100700.88;;;26.06;32.65
56630;BME280;42502;40.732;-74.254;2023-04-22T01:20:41;100700.88;;;26.06;32.35
56630;BME280;42502;40.732;-74.254;2023-04-22T01:22:44;100703.69;;;26.06;32.40
56630;BME280;42502;40.732;-74.254;2023-04-22T01:24:45;100695.59;;;26.04;32.65
56630;BME280;42502;40.732;-74.254;2023-04-22T01:26:46;100694.78;;;26.04;32.39
56630;BME280;42502;40.732;-74.254;2023-04-22T01:28:47;100696.78;;;26.03;32.43
56630;BME280;42502;40.732;-74.254;2023-04-22T01:30:48;100700.81;;;26.02;32.59
56630;BME280;42502;40.732;-74.254;2023-04-22T01:32:49;100705.28;;;26.03;32.46
56630;BME280;42502;40.732;-74.254;2023-04-22T01:34:50;100706.47;;;26.02;32.29
56630;BME280;42502;40.732;-74.254;2023-04-22T01:36:51;100704.88;;;26.01;32.50
56630;BME280;42502;40.732;-74.254;2023-04-22T01:38:52;100699.22;;;26.01;32.31
56630;BME280;42502;40.732;-74.254;2023-04-22T01:40:53;100693.56;;;26.01;32.61
56630;BME280;42502;40.732;-74.254;2023-04-22T01:42:55;100691.13;;;26.00;32.38
56630;BME280;42502;40.732;-74.254;2023-04-22T01:44:56;100678.09;;;25.95;32.59
56630;BME280;42502;40.732;-74.254;2023-04-22T01:46:56;100684.63;;;25.99;32.27
56630;BME280;42502;40.732;-74.254;2023-04-22T01:48:57;100690.28;;;25.99;32.58
56630;BME280;42502;40.732;-74.254;2023-04-22T01:50:58;100688.69;;;25.98;32.28
56630;BME280;42502;40.732;-74.254;2023-04-22T01:52:59;100700.00;;;25.98;32.38
56630;BME280;42502;40.732;-74.254;2023-04-22T01:55:01;100695.88;;;25.96;32.57
56630;BME280;42502;40.732;-74.254;2023-04-22T01:57:08;100693.88;;;25.96;32.35
56630;BME280;42502;40.732;-74.254;2023-04-22T01:59:10;100699.53;;;25.96;32.50
56630;BME280;42502;40.732;-74.254;2023-04-22T02:01:11;100696.69;;;25.96;32.41
56630;BME280;42502;40.732;-74.254;2023-04-22T02:03:12;100691.00;;;25.93;32.43
56630;BME280;42502;40.732;-74.254;2023-04-22T02:05:13;100692.25;;;25.95;32.36
56630;BME280;42502;40.732;-74.254;2023-04-22T02:07:15;100690.63;;;25.94;32.47
56630;BME280;42502;40.732;-74.254;2023-04-22T02:09:16;100696.28;;;25.94;32.53
56630;BME280;42502;40.732;-74.254;2023-04-22T02:11:16;100694.66;;;25.93;32.51
56630;BME280;42502;40.732;-74.254;2023-04-22T02:13:17;100703.13;;;25.93;32.77
56630;BME280;42502;40.732;-74.254;2023-04-22T02:15:18;100694.66;;;25.93;32.43
56630;BME280;42502;40.732;-74.254;2023-04-22T02:17:19;100692.59;;;25.90;32.61
56630;BME280;42502;40.732;-74.254;2023-04-22T02:19:21;100695.03;;;25.92;32.61
56630;BME280;42502;40.732;-74.254;2023-04-22T02:21:22;100682.13;;;25.91;32.50
56630;BME280;42502;40.732;-74.254;2023-04-22T02:23:26;100673.97;;;25.85;32.51
56630;BME280;42502;40.732;-74.254;2023-04-22T02:25:27;100677.22;;;25.87;32.60
56630;BME280;42502;40.732;-74.254;2023-04-22T02:27:28;100667.53;;;25.88;32.54
56630;BME280;42502;40.732;-74.254;2023-04-22T02:29:29;100672.38;;;25.88;32.52
56630;BME280;42502;40.732;-74.254;2023-04-22T02:31:31;100678.03;;;25.88;32.33
56630;BME280;42502;40.732;-74.254;2023-04-22T02:33:32;100683.69;;;25.88;32.39
56630;BME280;42502;40.732;-74.254;2023-04-22T02:35:33;100682.06;;;25.87;32.48
56630;BME280;42502;40.732;-74.254;2023-04-22T02:37:34;100678.44;;;25.86;32.57
56630;BME280;42502;40.732;-74.254;2023-04-22T02:39:35;100678.81;;;25.85;32.43
56630;BME280;42502;40.732;-74.254;2023-04-22T02:41:36;100673.97;;;25.85;32.48
56630;BME280;42502;40.732;-74.254;2023-04-22T02:43:36;100675.19;;;25.84;32.51
56630;BME280;42502;40.732;-74.254;2023-04-22T02:45:37;100682.03;;;25.83;32.31
56630;BME280;42502;40.732;-74.254;2023-04-22T02:47:40;100679.59;;;25.82;32.63
56630;BME280;42502;40.732;-74.254;2023-04-22T02:49:41;100681.25;;;25.83;32.33
56630;BME280;42502;40.732;-74.254;2023-04-22T02:51:41;100673.94;;;25.82;32.50
56630;BME280;42502;40.732;-74.254;2023-04-22T02:53:42;100672.31;;;25.81;32.17
56630;BME280;42502;40.732;-74.254;2023-04-22T02:55:43;100668.69;;;25.80;32.24
56630;BME280;42502;40.732;-74.254;2023-04-22T02:57:44;100673.53;;;25.80;32.13
56630;BME280;42502;40.732;-74.254;2023-04-22T02:59:45;100670.69;;;25.80;32.56
56630;BME280;42502;40.732;-74.254;2023-04-22T03:01:46;100664.22;;;25.79;32.40
56630;BME280;42502;40.732;-74.254;2023-04-22T03:03:47;100660.16;;;25.77;32.19
56630;BME280;42502;40.732;-74.254;2023-04-22T03:05:48;100663.41;;;25.79;32.39
56630;BME280;42502;40.732;-74.254;2023-04-22T03:07:48;100658.13;;;25.77;32.50
56630;BME280;42502;40.732;-74.254;2023-04-22T03:09:49;100655.69;;;25.76;32.57
56630;BME280;42502;40.732;-74.254;2023-04-22T03:11:50;100652.88;;;25.76;32.45
56630;BME280;42502;40.732;-74.254;2023-04-22T03:13:51;100650.03;;;25.76;32.31
56630;BME280;42502;40.732;-74.254;2023-04-22T03:15:52;100644.78;;;25.74;32.21
56630;BME280;42502;40.732;-74.254;2023-04-22T03:17:53;100641.94;;;25.74;32.24
56630;BME280;42502;40.732;-74.254;2023-04-22T03:19:54;100637.47;;;25.73;32.48
56630;BME280;42502;40.732;-74.254;2023-04-22T03:21:58;100642.34;;;25.73;32.58
56630;BME280;42502;40.732;-74.254;2023-04-22T03:24:11;100633.81;;;25.69;32.28
56630;BME280;42502;40.732;-74.254;2023-04-22T03:26:11;100626.56;;;25.71;32.27
56630;BME280;42502;40.732;-74.254;2023-04-22T03:28:13;100629.38;;;25.68;32.01
56630;BME280;42502;40.732;-74.254;2023-04-22T03:30:14;100626.94;;;25.70;32.25
56630;BME280;42502;40.732;-74.254;2023-04-22T03:32:15;100628.97;;;25.69;32.41
56630;BME280;42502;40.732;-74.254;2023-04-22T03:34:15;100630.16;;;25.68;32.39
56630;BME280;42502;40.732;-74.254;2023-04-22T03:36:16;100630.16;;;25.68;32.41
56630;BME280;42502;40.732;-74.254;2023-04-22T03:38:17;100625.72;;;25.67;32.43
56630;BME280;42502;40.732;-74.254;2023-04-22T03:40:18;100622.47;;;25.65;32.39
56630;BME280;42502;40.732;-74.254;2023-04-22T03:42:19;100628.94;;;25.66;32.27
56630;BME280;42502;40.732;-74.254;2023-04-22T03:44:20;100625.28;;;25.65;32.24
56630;BME280;42502;40.732;-74.254;2023-04-22T03:46:21;100593.63;;;25.49;32.24
56630;BME280;42502;40.732;-74.254;2023-04-22T03:48:22;100616.41;;;25.63;32.66
56630;BME280;42502;40.732;-74.254;2023-04-22T03:50:23;100617.19;;;25.64;32.44
56630;BME280;42502;40.732;-74.254;2023-04-22T03:52:24;100610.75;;;25.63;32.33
56630;BME280;42502;40.732;-74.254;2023-04-22T03:54:26;100603.44;;;25.59;32.71
56630;BME280;42502;40.732;-74.254;2023-04-22T03:56:26;100605.47;;;25.62;32.44
56630;BME280;42502;40.732;-74.254;2023-04-22T03:58:27;100603.44;;;25.62;32.23
56630;BME280;42502;40.732;-74.254;2023-04-22T04:00:28;100605.88;;;25.60;32.33
56630;BME280;42502;40.732;-74.254;2023-04-22T04:02:29;100596.53;;;25.60;32.39
56630;BME280;42502;40.732;-74.254;2023-04-22T04:04:30;100594.94;;;25.59;32.58
56630;BME280;42502;40.732;-74.254;2023-04-22T04:06:31;100592.13;;;25.59;32.52
56630;BME280;42502;40.732;-74.254;2023-04-22T04:08:32;100598.16;;;25.57;32.24
56630;BME280;42502;40.732;-74.254;2023-04-22T04:10:34;100601.00;;;25.57;32.55
56630;BME280;42502;40.732;-74.254;2023-04-22T04:12:38;100596.53;;;25.56;32.28
56630;BME280;42502;40.732;-74.254;2023-04-22T04:14:39;100593.69;;;25.56;32.41
56630;BME280;42502;40.732;-74.254;2023-04-22T04:16:40;100591.66;;;25.53;32.51
56630;BME280;42502;40.732;-74.254;2023-04-22T04:18:41;100604.22;;;25.56;32.45
56630;BME280;42502;40.732;-74.254;2023-04-22T04:20:42;100603.38;;;25.55;32.59
56630;BME280;42502;40.732;-74.254;2023-04-22T04:22:43;100588.81;;;25.53;32.35
56630;BME280;42502;40.732;-74.254;2023-04-22T04:24:44;100601.78;;;25.54;32.36
56630;BME280;42502;40.732;-74.254;2023-04-22T04:26:51;100599.34;;;25.52;32.62
56630;BME280;42502;40.732;-74.254;2023-04-22T04:28:56;100594.47;;;25.53;32.70
56630;BME280;42502;40.732;-74.254;2023-04-22T04:30:57;100607.00;;;25.52;32.33
56630;BME280;42502;40.732;-74.254;2023-04-22T04:32:58;100587.97;;;25.49;32.42
56630;BME280;42502;40.732;-74.254;2023-04-22T04:34:59;100600.91;;;25.50;32.36
56630;BME280;42502;40.732;-74.254;2023-04-22T04:37:01;100612.22;;;25.50;32.45
56630;BME280;42502;40.732;-74.254;2023-04-22T04:39:02;100604.53;;;25.47;32.17
56630;BME280;42502;40.732;-74.254;2023-04-22T04:41:03;100604.13;;;25.48;32.35
56630;BME280;42502;40.732;-74.254;2023-04-22T04:43:04;100609.00;;;25.48;32.53
56630;BME280;42502;40.732;-74.254;2023-04-22T04:45:08;100603.34;;;25.48;32.26
56630;BME280;42502;40.732;-74.254;2023-04-22T04:47:09;100596.44;;;25.45;32.27
56630;BME280;42502;40.732;-74.254;2023-04-22T04:49:09;100594.41;;;25.46;32.36
56630;BME280;42502;40.732;-74.254;2023-04-22T04:51:12;100595.63;;;25.45;32.51
56630;BME280;42502;40.732;-74.254;2023-04-22T04:53:14;100589.16;;;25.44;32.51
56630;BME280;42502;40.732;-74.254;2023-04-22T04:55:16;100600.47;;;25.44;32.39
56630;BME280;42502;40.732;-74.254;2023-04-22T04:57:17;100596.81;;;25.44;32.31
56630;BME280;42502;40.732;-74.254;2023-04-22T04:59:18;100590.38;;;25.43;32.53
56630;BME280;42502;40.732;-74.254;2023-04-22T05:01:19;100590.75;;;25.42;32.14
56630;BME280;42502;40.732;-74.254;2023-04-22T05:03:19;100579.44;;;25.42;32.44
56630;BME280;42502;40.732;-74.254;2023-04-22T05:05:20;100589.13;;;25.41;32.46
56630;BME280;42502;40.732;-74.254;2023-04-22T05:07:21;100572.94;;;25.38;32.23
56630;BME280;42502;40.732;-74.254;2023-04-22T05:09:22;100579.00;;;25.40;32.31
56630;BME280;42502;40.732;-74.254;2023-04-22T05:11:23;100584.66;;;25.40;32.52
56630;BME280;42502;40.732;-74.254;2023-04-22T05:13:24;100582.22;;;25.38;32.25
56630;BME280;42502;40.732;-74.254;2023-04-22T05:15:25;100578.59;;;25.38;32.34
56630;BME280;42502;40.732;-74.254;2023-04-22T05:17:27;100574.94;;;25.37;32.42
56630;BME280;42502;40.732;-74.254;2023-04-22T05:19:28;100574.94;;;25.37;32.60
56630;BME280;42502;40.732;-74.254;2023-04-22T05:21:28;100566.03;;;25.35;32.47
56630;BME280;42502;40.732;-74.254;2023-04-22T05:23:30;100565.25;;;25.34;32.35
56630;BME280;42502;40.732;-74.254;2023-04-22T05:25:31;100559.59;;;25.34;32.58
56630;BME280;42502;40.732;-74.254;2023-04-22T05:27:32;100555.91;;;25.34;32.44
56630;BME280;42502;40.732;-74.254;2023-04-22T05:29:33;100557.16;;;25.33;32.15
56630;BME280;42502;40.732;-74.254;2023-04-22T05:31:34;100559.13;;;25.32;32.25
56630;BME280;42502;40.732;-74.254;2023-04-22T05:33:35;100557.53;;;25.31;32.41
56630;BME280;42502;40.732;-74.254;2023-04-22T05:35:36;100555.91;;;25.30;32.39
56630;BME280;42502;40.732;-74.254;2023-04-22T05:37:38;100550.59;;;25.29;32.40
56630;BME280;42502;40.732;-74.254;2023-04-22T05:39:39;100551.03;;;25.31;32.13
56630;BME280;42502;40.732;-74.254;2023-04-22T05:41:40;100544.09;;;25.25;32.18
56630;BME280;42502;40.732;-74.254;2023-04-22T05:43:40;100553.44;;;25.29;32.42
56630;BME280;42502;40.732;-74.254;2023-04-22T05:45:41;100541.31;;;25.28;32.25
56630;BME280;42502;40.732;-74.254;2023-04-22T05:47:42;100548.97;;;25.28;32.58
56630;BME280;42502;40.732;-74.254;2023-04-22T05:49:43;100543.72;;;25.26;32.27
56630;BME280;42502;40.732;-74.254;2023-04-22T05:51:44;100546.53;;;25.26;32.39
56630;BME280;42502;40.732;-74.254;2023-04-22T05:53:45;100534.81;;;25.24;32.27
56630;BME280;42502;40.732;-74.254;2023-04-22T05:55:46;100532.00;;;25.24;32.41
56630;BME280;42502;40.732;-74.254;2023-04-22T05:57:47;100535.63;;;25.25;32.07
56630;BME280;42502;40.732;-74.254;2023-04-22T05:59:48;100535.19;;;25.19;32.22
56630;BME280;42502;40.732;-74.254;2023-04-22T06:01:49;100531.56;;;25.22;32.11
56630;BME280;42502;40.732;-74.254;2023-04-22T06:03:50;100533.56;;;25.22;32.29
56630;BME280;42502;40.732;-74.254;2023-04-22T06:05:51;100532.38;;;25.23;32.27
56630;BME280;42502;40.732;-74.254;2023-04-22T06:07:52;100527.13;;;25.21;32.35
56630;BME280;42502;40.732;-74.254;2023-04-22T06:09:53;100529.53;;;25.19;32.33
56630;BME280;42502;40.732;-74.254;2023-04-22T06:11:54;100532.34;;;25.19;32.28
56630;BME280;42502;40.732;-74.254;2023-04-22T06:13:55;100529.53;;;25.19;32.48
56630;BME280;42502;40.732;-74.254;2023-04-22T06:15:56;100529.53;;;25.19;32.35
56630;BME280;42502;40.732;-74.254;2023-04-22T06:17:57;100527.09;;;25.17;32.58
56630;BME280;42502;40.732;-74.254;2023-04-22T06:19:58;100527.91;;;25.18;32.18
56630;BME280;42502;40.732;-74.254;2023-04-22T06:21:59;100524.66;;;25.16;32.32
56630;BME280;42502;40.732;-74.254;2023-04-22T06:24:00;100524.66;;;25.16;32.18
56630;BME280;42502;40.732;-74.254;2023-04-22T06:26:01;100514.53;;;25.15;32.11
56630;BME280;42502;40.732;-74.254;2023-04-22T06:28:01;100508.88;;;25.15;32.35
56630;BME280;42502;40.732;-74.254;2023-04-22T06:30:04;100503.63;;;25.13;32.16
56630;BME280;42502;40.732;-74.254;2023-04-22T06:32:05;100495.53;;;25.12;32.17
56630;BME280;42502;40.732;-74.254;2023-04-22T06:34:08;100502.00;;;25.12;32.56
56630;BME280;42502;40.732;-74.254;2023-04-22T06:36:09;100506.84;;;25.12;32.34
56630;BME280;42502;40.732;-74.254;2023-04-22T06:38:10;100501.59;;;25.10;32.38
56630;BME280;42502;40.732;-74.254;2023-04-22T06:40:12;100503.16;;;25.04;32.27
56630;BME280;42502;40.732;-74.254;2023-04-22T06:42:13;100500.75;;;25.10;32.21
56630;BME280;42502;40.732;-74.254;2023-04-22T06:44:14;100502.78;;;25.09;32.16
56630;BME280;42502;40.732;-74.254;2023-04-22T06:46:16;100512.44;;;25.08;32.07
56630;BME280;42502;40.732;-74.254;2023-04-22T06:48:17;100515.66;;;25.07;32.35
56630;BME280;42502;40.732;-74.254;2023-04-22T06:50:18;100510.00;;;25.07;32.02
56630;BME280;42502;40.732;-74.254;2023-04-22T06:52:19;100514.84;;;25.06;32.06
56630;BME280;42502;40.732;-74.254;2023-04-22T06:54:21;100513.22;;;25.05;32.45
56630;BME280;42502;40.732;-74.254;2023-04-22T06:56:21;100506.78;;;25.05;32.10
56630;BME280;42502;40.732;-74.254;2023-04-22T06:58:22;100509.19;;;25.03;32.27
56630;BME280;42502;40.732;-74.254;2023-04-22T07:00:26;100501.91;;;25.01;32.37
56630;BME280;42502;40.732;-74.254;2023-04-22T07:02:27;100504.34;;;25.03;32.12
56630;BME280;42502;40.732;-74.254;2023-04-22T07:04:28;100517.66;;;25.03;32.15
56630;BME280;42502;40.732;-74.254;2023-04-22T07:06:30;100512.41;;;25.01;32.20
56630;BME280;42502;40.732;-74.254;2023-04-22T07:08:32;100516.03;;;25.01;32.10
56630;BME280;42502;40.732;-74.254;2023-04-22T07:10:33;100519.25;;;25.00;32.08
56630;BME280;42502;40.732;-74.254;2023-04-22T07:12:34;100511.16;;;24.98;32.37
56630;BME280;42502;40.732;-74.254;2023-04-22T07:14:36;100505.03;;;24.93;32.32
56630;BME280;42502;40.732;-74.254;2023-04-22T07:16:37;100517.19;;;24.97;32.33
56630;BME280;42502;40.732;-74.254;2023-04-22T07:18:38;100516.41;;;24.96;32.25
56630;BME280;42502;40.732;-74.254;2023-04-22T07:20:39;100514.38;;;24.97;32.29
56630;BME280;42502;40.732;-74.254;2023-04-22T07:22:40;100514.75;;;24.95;32.09
56630;BME280;42502;40.732;-74.254;2023-04-22T07:24:41;100507.47;;;24.94;32.06
56630;BME280;42502;40.732;-74.254;2023-04-22T07:26:43;100512.31;;;24.94;32.42
56630;BME280;42502;40.732;-74.254;2023-04-22T07:28:44;100512.72;;;24.92;32.18
56630;BME280;42502;40.732;-74.254;2023-04-22T07:30:44;100513.50;;;24.93;32.18
56630;BME280;42502;40.732;-74.254;2023-04-22T07:32:48;100508.66;;;24.90;32.09
56630;BME280;42502;40.732;-74.254;2023-04-22T07:34:51;100526.03;;;24.92;32.22
56630;BME280;42502;40.732;-74.254;2023-04-22T07:36:52;100515.13;;;24.90;31.80
56630;BME280;42502;40.732;-74.254;2023-04-22T07:38:53;100517.94;;;24.90;32.17
56630;BME280;42502;40.732;-74.254;2023-04-22T07:40:54;100507.44;;;24.87;32.12
56630;BME280;42502;40.732;-74.254;2023-04-22T07:42:55;100513.88;;;24.88;32.27
56630;BME280;42502;40.732;-74.254;2023-04-22T07:44:56;100507.44;;;24.87;32.20
56630;BME280;42502;40.732;-74.254;2023-04-22T07:46:56;100513.88;;;24.88;32.13
56630;BME280;42502;40.732;-74.254;2023-04-22T07:49:01;100504.16;;;24.85;32.11
56630;BME280;42502;40.732;-74.254;2023-04-22T07:51:02;100510.63;;;24.86;32.18
56630;BME280;42502;40.732;-74.254;2023-04-22T07:53:03;100508.19;;;24.84;32.06
56630;BME280;42502;40.732;-74.254;2023-04-22T07:55:04;100504.53;;;24.80;32.04
56630;BME280;42502;40.732;-74.254;2023-04-22T07:57:05;100507.34;;;24.80;32.11
56630;BME280;42502;40.732;-74.254;2023-04-22T07:59:06;100499.66;;;24.77;32.26
56630;BME280;42502;40.732;-74.254;2023-04-22T08:01:07;100510.16;;;24.80;32.26
56630;BME280;42502;40.732;-74.254;2023-04-22T08:03:08;100521.88;;;24.82;31.98
56630;BME280;42502;40.732;-74.254;2023-04-22T08:05:09;100514.19;;;24.79;32.12
56630;BME280;42502;40.732;-74.254;2023-04-22T08:07:10;100518.66;;;24.80;32.24
56630;BME280;42502;40.732;-74.254;2023-04-22T08:09:11;100501.63;;;24.76;32.26
56630;BME280;42502;40.732;-74.254;2023-04-22T08:11:12;100513.38;;;24.78;31.97
56630;BME280;42502;40.732;-74.254;2023-04-22T08:13:13;100509.72;;;24.78;31.95
56630;BME280;42502;40.732;-74.254;2023-04-22T08:15:14;100499.19;;;24.71;32.29
56630;BME280;42502;40.732;-74.254;2023-04-22T08:17:15;100509.31;;;24.76;31.94
56630;BME280;42502;40.732;-74.254;2023-04-22T08:19:15;100510.50;;;24.75;32.05
56630;BME280;42502;40.732;-74.254;2023-04-22T08:21:19;100516.16;;;24.75;32.05
56630;BME280;42502;40.732;-74.254;2023-04-22T08:23:20;100516.53;;;24.73;32.15
56630;BME280;42502;40.732;-74.254;2023-04-22T08:25:22;100525.00;;;24.73;32.15
56630;BME280;42502;40.732;-74.254;2023-04-22T08:27:23;100531.06;;;24.72;32.15
56630;BME280;42502;40.732;-74.254;2023-04-22T08:29:23;100521.34;;;24.69;32.20
56630;BME280;42502;40.732;-74.254;2023-04-22T08:31:24;100535.09;;;24.71;32.20
56630;BME280;42502;40.732;-74.254;2023-04-22T08:33:25;100534.66;;;24.69;32.08
56630;BME280;42502;40.732;-74.254;2023-04-22T08:35:26;100533.47;;;24.70;32.19
56630;BME280;42502;40.732;-74.254;2023-04-22T08:37:28;100532.59;;;24.65;32.21
56630;BME280;42502;40.732;-74.254;2023-04-22T08:39:29;100535.88;;;24.68;32.14
56630;BME280;42502;40.732;-74.254;2023-04-22T08:41:33;100522.53;;;24.64;32.15
56630;BME280;42502;40.732;-74.254;2023-04-22T08:43:35;100524.50;;;24.64;32.04
56630;BME280;42502;40.732;-74.254;2023-04-22T08:45:39;100535.44;;;24.65;32.16
56630;BME280;42502;40.732;-74.254;2023-04-22T08:47:40;100536.63;;;24.64;31.89
56630;BME280;42502;40.732;-74.254;2023-04-22T08:49:42;100535.41;;;24.62;32.17
56630;BME280;42502;40.732;-74.254;2023-04-22T08:51:44;100536.59;;;24.61;31.85
56630;BME280;42502;40.732;-74.254;2023-04-22T08:53:46;100537.41;;;24.61;31.86
56630;BME280;42502;40.732;-74.254;2023-04-22T08:55:48;100548.31;;;24.63;31.84
56630;BME280;42502;40.732;-74.254;2023-04-22T08:57:49;100536.19;;;24.62;31.93
56630;BME280;42502;40.732;-74.254;2023-04-22T08:59:51;100545.06;;;24.61;32.10
56630;BME280;42502;40.732;-74.254;2023-04-22T09:01:54;100529.72;;;24.58;31.93
56630;BME280;42502;40.732;-74.254;2023-04-22T09:03:58;100539.34;;;24.57;32.18
56630;BME280;42502;40.732;-74.254;2023-04-22T09:06:02;100532.53;;;24.58;31.78
56630;BME280;42502;40.732;-74.254;2023-04-22T09:08:04;100529.25;;;24.56;31.98
56630;BME280;42502;40.732;-74.254;2023-04-22T09:10:08;100538.53;;;24.57;31.95
56630;BME280;42502;40.732;-74.254;2023-04-22T09:12:11;100541.38;;;24.57;32.14
56630;BME280;42502;40.732;-74.254;2023-04-22T09:14:12;100536.91;;;24.56;32.19
56630;BME280;42502;40.732;-74.254;2023-04-22T09:16:12;100536.91;;;24.56;32.08
56630;BME280;42502;40.732;-74.254;2023-04-22T09:18:17;100531.66;;;24.54;31.97
56630;BME280;42502;40.732;-74.254;2023-04-22T09:20:25;100539.31;;;24.54;31.94
56630;BME280;42502;40.732;-74.254;2023-04-22T09:22:37;100534.84;;;24.53;31.99
56630;BME280;42502;40.732;-74.254;2023-04-22T09:24:48;100526.34;;;24.49;31.89
56630;BME280;42502;40.732;-74.254;2023-04-22T09:26:50;100523.56;;;24.53;32.01
56630;BME280;42502;40.732;-74.254;2023-04-22T09:28:56;100518.28;;;24.51;31.90
56630;BME280;42502;40.732;-74.254;2023-04-22T09:31:01;100515.47;;;24.51;32.25
56630;BME280;42502;40.732;-74.254;2023-04-22T09:33:04;100522.31;;;24.50;32.07
56630;BME280;42502;40.732;-74.254;2023-04-22T09:35:06;100514.22;;;24.48;31.84
56630;BME280;42502;40.732;-74.254;2023-04-22T09:37:07;100508.56;;;24.48;32.15
56630;BME280;42502;40.732;-74.254;2023-04-22T09:39:08;100522.28;;;24.46;31.99
56630;BME280;42502;40.732;-74.254;2023-04-22T09:41:09;100527.94;;;24.46;32.14
56630;BME280;42502;40.732;-74.254;2023-04-22T09:43:18;100516.53;;;24.39;32.13
56630;BME280;42502;40.732;-74.254;2023-04-22T09:47:35;100517.34;;;24.40;32.20
56630;BME280;42502;40.732;-74.254;2023-04-22T09:49:36;100529.50;;;24.44;31.90
56630;BME280;42502;40.732;-74.254;2023-04-22T09:51:40;100518.97;;;24.41;31.90
56630;BME280;42502;40.732;-74.254;2023-04-22T09:53:41;100532.72;;;24.42;32.08
56630;BME280;42502;40.732;-74.254;2023-04-22T09:55:48;100535.13;;;24.40;32.12
56630;BME280;42502;40.732;-74.254;2023-04-22T09:57:54;100535.50;;;24.39;31.96
56630;BME280;42502;40.732;-74.254;2023-04-22T09:59:57;100527.81;;;24.39;31.86
56630;BME280;42502;40.732;-74.254;2023-04-22T10:02:00;100521.00;;;24.40;31.93
56630;BME280;42502;40.732;-74.254;2023-04-22T10:04:03;100529.03;;;24.38;31.99
56630;BME280;42502;40.732;-74.254;2023-04-22T10:06:05;100532.69;;;24.39;32.05
56630;BME280;42502;40.732;-74.254;2023-04-22T10:08:08;100523.75;;;24.37;31.84
56630;BME280;42502;40.732;-74.254;2023-04-22T10:10:09;100530.56;;;24.32;31.85
56630;BME280;42502;40.732;-74.254;2023-04-22T10:12:10;100543.09;;;24.35;31.96
56630;BME280;42502;40.732;-74.254;2023-04-22T10:14:11;100538.25;;;24.35;31.77
56630;BME280;42502;40.732;-74.254;2023-04-22T10:16:13;100521.25;;;24.28;32.12
56630;BME280;42502;40.732;-74.254;2023-04-22T10:18:25;100534.59;;;24.31;32.02
56630;BME280;42502;40.732;-74.254;2023-04-22T10:20:30;100538.22;;;24.32;32.08
56630;BME280;42502;40.732;-74.254;2023-04-22T10:22:33;100534.22;;;24.33;32.16